Time;durP1;ratioP1;P1;durP2;ratioP2;P2;SDS_P1;SDS_P2;PMS_P1;PMS_P2;Temp;Humidity;BMP_temperature;BMP_pressure;BME280_temperature;BME280_humidity;BME280_pressure;Samples;Min_cycle;Max_cycle;Signal;HPM_P1;HPM_P2
2020/12/13 00:00:00;;;;;;;26.70;17.30;;;5.80;99.90;;;6.88;97.57;99187.19;4723301;30;20676;-62
2020/12/13 00:02:29;;;;;;;24.43;16.57;;;5.80;99.90;;;6.67;98.41;99190.28;4723312;30;20213;-62
2020/12/13 00:04:56;;;;;;;23.80;16.57;;;5.80;99.90;;;6.42;100.00;99192.13;4723379;30;20237;-62
2020/12/13 00:07:24;;;;;;;25.17;17.77;;;5.70;99.90;;;6.39;100.00;99197.91;4724472;30;20300;-62
2020/12/13 00:09:51;;;;;;;25.37;17.17;;;5.60;99.90;;;6.57;100.00;99197.13;4725673;30;20291;-61
2020/12/13 00:12:18;;;;;;;23.70;17.33;;;5.60;99.90;;;6.67;99.41;99195.63;4724515;30;20213;-62
2020/12/13 00:14:45;;;;;;;23.63;16.30;;;5.60;99.90;;;6.61;98.52;99204.53;4724095;30;20240;-62
2020/12/13 00:17:12;;;;;;;25.43;16.67;;;5.60;99.90;;;6.72;97.56;99203.81;4725534;30;20290;-61
2020/12/13 00:19:41;;;;;;;25.03;17.30;;;5.70;99.90;;;6.81;97.43;99207.03;4724724;30;20305;-62
2020/12/13 00:22:08;;;;;;;24.87;16.33;;;5.70;99.90;;;6.88;97.38;99202.44;4723742;30;20244;-62
2020/12/13 00:24:35;;;;;;;22.40;16.83;;;5.80;99.90;;;6.98;96.54;99200.91;4725331;30;20243;-62
2020/12/13 00:27:02;;;;;;;22.47;16.47;;;5.90;99.90;;;6.80;97.38;99202.72;4724529;30;20245;-62
2020/12/13 00:29:30;;;;;;;21.50;16.00;;;5.80;99.90;;;6.49;98.95;99206.25;4723775;30;20716;-62
2020/12/13 00:31:57;;;;;;;25.57;16.83;;;5.70;99.90;;;6.45;100.00;99210.41;4725053;30;20214;-61
2020/12/13 00:34:24;;;;;;;21.87;15.60;;;5.60;99.90;;;6.55;99.97;99209.91;4723425;30;20233;-62
2020/12/13 00:36:53;;;;;;;22.77;16.33;;;5.60;99.90;;;6.45;99.93;99206.91;4722897;30;20219;-62
2020/12/13 00:39:20;;;;;;;24.33;16.67;;;5.60;99.90;;;6.39;100.00;99216.63;4723671;30;20207;-62
2020/12/13 00:41:51;;;;;;;22.07;15.73;;;5.50;99.90;;;6.35;100.00;99214.56;4724357;30;20221;-62
2020/12/13 00:44:19;;;;;;;23.33;15.93;;;5.50;99.90;;;6.61;100.00;99222.44;4723594;30;20686;-62
2020/12/13 00:46:48;;;;;;;23.77;15.47;;;5.50;99.90;;;7.08;96.51;99211.13;4724339;30;20275;-63
2020/12/13 00:49:16;;;;;;;22.70;15.97;;;5.70;99.90;;;6.84;97.82;99220.81;4715297;30;20240;-63
2020/12/13 00:51:43;;;;;;;22.03;15.83;;;5.80;99.90;;;7.01;96.77;99223.75;4723242;30;20299;-61
2020/12/13 00:54:12;;;;;;;21.63;15.63;;;5.80;99.90;;;6.68;98.50;99229.34;4724041;30;20216;-61
2020/12/13 00:56:39;;;;;;;22.53;15.37;;;5.80;99.90;;;6.56;99.71;99228.41;4723182;30;20225;-61
2020/12/13 00:59:06;;;;;;;21.90;15.40;;;5.70;99.90;;;6.78;99.02;99227.00;4722931;30;20232;-64
2020/12/13 01:01:33;;;;;;;23.30;16.03;;;5.70;99.90;;;6.53;99.22;99238.75;4723143;30;20302;-62
2020/12/13 01:04:01;;;;;;;21.90;15.73;;;5.70;99.90;;;6.56;100.00;99233.75;4727024;30;20242;-62
2020/12/13 01:06:29;;;;;;;21.70;15.93;;;5.60;99.90;;;7.07;96.41;99237.06;4727900;30;20691;-62
2020/12/13 01:08:56;;;;;;;22.97;15.80;;;5.80;99.90;;;7.07;95.80;99242.41;4727198;30;20302;-61
2020/12/13 01:11:27;;;;;;;18.47;14.17;;;5.90;99.90;;;6.85;97.09;99243.84;4727119;30;20307;-61
2020/12/13 01:13:55;;;;;;;21.00;14.57;;;5.90;99.90;;;6.97;96.72;99242.09;4723807;30;20303;-62
2020/12/13 01:16:23;;;;;;;21.23;16.00;;;5.90;99.90;;;6.74;97.32;99246.41;4718931;30;20321;-63
2020/12/13 01:18:52;;;;;;;20.40;14.63;;;5.90;99.90;;;6.49;99.07;99254.41;4718919;30;20206;-61
2020/12/13 01:21:22;;;;;;;20.97;14.40;;;5.70;99.90;;;6.63;99.63;99257.81;4718939;30;20216;-62
2020/12/13 01:23:50;;;;;;;21.43;15.10;;;5.70;99.90;;;6.43;99.73;99257.13;4719253;30;20205;-62
2020/12/13 01:26:19;;;;;;;22.50;15.13;;;5.60;99.90;;;6.49;99.74;99259.78;4719116;30;20233;-61
2020/12/13 01:28:48;;;;;;;23.97;15.80;;;5.60;99.90;;;6.59;100.00;99264.63;4719319;30;20632;-61
2020/12/13 01:31:18;;;;;;;21.03;14.80;;;5.60;99.90;;;6.50;100.00;99260.56;4719150;30;20217;-62
2020/12/13 01:33:47;;;;;;;21.73;14.90;;;5.60;99.90;;;7.09;96.36;99259.09;4718926;30;20198;-62
2020/12/13 01:36:17;;;;;;;19.03;14.13;;;5.70;99.90;;;6.80;98.16;99261.63;4718714;30;20336;-62
2020/12/13 01:38:45;;;;;;;21.50;15.00;;;5.70;99.90;;;6.96;96.83;99269.09;4719345;30;20315;-62
2020/12/13 01:41:12;;;;;;;22.23;14.73;;;5.80;99.90;;;6.77;97.01;99267.38;4718789;30;20233;-62
2020/12/13 01:43:40;;;;;;;20.07;14.33;;;5.80;99.90;;;7.06;96.32;99270.25;4718922;30;20227;-62
2020/12/13 01:46:08;;;;;;;20.27;14.67;;;5.90;99.90;;;6.74;97.38;99276.69;4718840;30;20233;-62
2020/12/13 01:48:37;;;;;;;20.60;14.73;;;5.80;99.90;;;6.69;97.74;99286.38;4718306;30;20825;-61
2020/12/13 01:51:13;;;;;;;20.97;15.33;;;5.70;99.90;;;6.82;97.15;99276.41;4718807;30;20224;-61
2020/12/13 01:53:45;;;;;;;19.73;14.03;;;5.80;99.90;;;6.75;96.89;99283.66;4718514;30;20648;-62
2020/12/13 01:56:15;;;;;;;21.80;14.63;;;5.80;99.90;;;6.53;98.79;99290.38;4718493;30;20225;-62
2020/12/13 01:58:46;;;;;;;19.77;14.37;;;5.70;99.90;;;6.60;98.64;99291.16;4718329;30;20748;-62
2020/12/13 02:01:15;;;;;;;20.33;14.67;;;5.70;99.90;;;6.86;96.65;99298.19;4718526;30;20299;-62
2020/12/13 02:03:51;;;;;;;20.20;14.27;;;5.80;99.90;;;7.04;96.02;99295.59;4718154;30;20308;-61
2020/12/13 02:06:24;;;;;;;21.90;14.70;;;5.80;99.90;;;6.86;96.04;99298.19;4718312;30;20201;-63
2020/12/13 02:08:52;;;;;;;20.23;14.93;;;5.90;99.90;;;7.03;95.73;99297.47;4718330;30;20198;-62
2020/12/13 02:11:20;;;;;;;20.33;14.07;;;5.90;99.90;;;6.75;96.97;99302.38;4718333;30;20213;-62
2020/12/13 02:13:50;;;;;;;20.63;15.10;;;5.90;99.90;;;7.04;96.16;99307.13;4718001;30;20228;-62
2020/12/13 02:16:19;;;;;;;18.73;13.83;;;5.90;99.90;;;6.76;96.98;99300.53;4717975;30;20763;-61
2020/12/13 02:18:48;;;;;;;21.63;14.77;;;5.90;99.90;;;6.66;98.50;99309.06;4718259;30;20218;-73
2020/12/13 02:21:16;;;;;;;19.63;14.20;;;5.80;99.90;;;6.65;98.95;99302.03;4718393;30;20263;-73
2020/12/13 02:23:45;;;;;;;19.50;14.33;;;5.80;99.90;;;6.70;97.21;99304.91;4718021;30;20739;-74
2020/12/13 02:26:14;;;;;;;20.97;14.87;;;5.80;99.90;;;6.62;98.48;99313.19;4718165;30;20296;-74
2020/12/13 02:28:42;;;;;;;19.70;13.37;;;5.70;99.90;;;7.06;95.72;99312.25;4718551;30;20240;-75
2020/12/13 02:31:10;;;;;;;20.07;14.30;;;5.80;99.90;;;7.11;94.86;99302.53;4718467;30;20342;-74
2020/12/13 02:33:37;;;;;;;18.90;14.00;;;5.90;99.90;;;6.78;96.17;99306.50;4717850;30;20210;-74
2020/12/13 02:36:05;;;;;;;17.53;13.30;;;5.90;99.90;;;6.58;98.52;99317.31;4717795;30;20688;-74
2020/12/13 02:38:33;;;;;;;21.73;14.13;;;5.80;99.90;;;6.60;98.33;99312.56;4717833;30;20702;-74
2020/12/13 02:41:02;;;;;;;19.53;13.93;;;5.70;99.90;;;7.06;95.32;99315.75;4717603;30;20387;-73
2020/12/13 02:43:29;;;;;;;20.07;14.10;;;5.80;99.90;;;6.72;96.66;99318.88;4718056;30;20253;-73
2020/12/13 02:45:56;;;;;;;18.20;13.63;;;5.80;99.90;;;6.73;96.99;99320.50;4717717;30;20255;-74
2020/12/13 02:48:25;;;;;;;16.93;12.70;;;5.80;99.90;;;6.53;98.79;99333.19;4717554;30;20311;-73
2020/12/13 02:50:52;;;;;;;19.77;14.57;;;5.70;99.90;;;6.72;98.38;99326.91;4717477;30;20217;-73
2020/12/13 02:53:20;;;;;;;21.37;14.37;;;5.70;99.90;;;6.71;97.46;99327.13;4717594;30;20588;-74
2020/12/13 02:55:47;;;;;;;19.00;13.33;;;5.70;99.90;;;6.99;95.24;99327.53;4717585;30;20265;-73
2020/12/13 02:58:16;;;;;;;17.80;13.37;;;5.80;99.90;;;6.92;96.09;99324.91;4717673;30;20228;-74
2020/12/13 03:00:43;;;;;;;18.70;13.33;;;5.80;99.90;;;7.04;95.12;99336.56;4717388;30;20252;-75
2020/12/13 03:03:10;;;;;;;18.00;13.37;;;5.90;99.90;;;6.97;95.49;99330.44;4717470;30;20248;-74
2020/12/13 03:05:37;;;;;;;19.17;13.00;;;5.90;99.90;;;7.08;94.62;99335.13;4717645;30;20233;-73
2020/12/13 03:08:05;;;;;;;19.00;14.10;;;5.90;99.90;;;6.75;95.86;99334.50;4717621;30;20308;-73
2020/12/13 03:10:32;;;;;;;20.13;14.03;;;5.90;99.90;;;6.80;97.54;99339.22;4717439;30;20213;-74
2020/12/13 03:12:59;;;;;;;17.63;13.77;;;5.80;99.90;;;6.85;96.70;99336.72;4717263;30;20247;-74
2020/12/13 03:15:27;;;;;;;18.00;12.87;;;5.80;99.90;;;6.78;97.37;99343.97;4717189;30;20333;-73
2020/12/13 03:17:54;;;;;;;18.47;13.27;;;5.80;99.90;;;6.95;95.69;99348.56;4717188;30;20326;-73
2020/12/13 03:20:21;;;;;;;18.07;13.57;;;5.90;99.90;;;6.84;96.03;99349.28;4717387;30;20280;-74
2020/12/13 03:22:49;;;;;;;18.03;13.27;;;5.90;99.90;;;6.69;96.63;99351.44;4717142;30;20221;-73
2020/12/13 03:25:17;;;;;;;19.23;14.30;;;5.90;99.90;;;6.79;96.85;99358.97;4716454;30;20750;-74
2020/12/13 03:27:44;;;;;;;18.27;13.23;;;5.80;99.90;;;6.87;96.78;99354.19;4717286;30;20217;-74
2020/12/13 03:30:12;;;;;;;18.60;13.40;;;5.90;99.90;;;6.77;96.10;99350.34;4716847;30;20275;-74
2020/12/13 03:32:40;;;;;;;19.43;13.10;;;5.90;99.90;;;6.84;97.13;99357.31;4717043;30;20359;-73
2020/12/13 03:35:07;;;;;;;19.23;14.27;;;5.80;99.90;;;6.94;95.47;99356.81;4717066;30;20324;-74
2020/12/13 03:37:34;;;;;;;16.87;12.83;;;5.90;99.90;;;6.65;97.85;99352.88;4717124;30;20312;-72
2020/12/13 03:40:01;;;;;;;18.47;13.57;;;5.80;99.90;;;6.75;97.44;99361.25;4716791;30;20687;-74
2020/12/13 03:42:28;;;;;;;19.00;13.30;;;5.70;99.90;;;6.94;96.48;99368.38;4716599;30;20300;-74
2020/12/13 03:44:55;;;;;;;19.20;13.97;;;5.80;99.90;;;6.98;96.15;99353.53;4716868;30;20213;-73
2020/12/13 03:47:23;;;;;;;17.70;13.60;;;5.90;99.90;;;6.92;95.39;99358.91;4716445;30;20804;-73
2020/12/13 03:49:51;;;;;;;18.97;13.27;;;5.90;99.90;;;6.61;97.86;99361.56;4716606;30;20652;-74
2020/12/13 03:52:18;;;;;;;18.13;12.83;;;5.80;99.90;;;6.79;96.97;99364.34;4716762;30;20223;-73
2020/12/13 03:54:46;;;;;;;17.17;12.90;;;5.80;99.90;;;6.84;96.64;99369.88;4716526;30;20741;-74
2020/12/13 03:57:13;;;;;;;17.67;13.07;;;5.80;99.90;;;7.02;94.91;99370.78;4716285;30;20217;-73
2020/12/13 03:59:40;;;;;;;16.93;12.23;;;5.90;99.90;;;6.61;97.35;99372.28;4716479;30;20746;-73
2020/12/13 04:02:07;;;;;;;17.83;13.33;;;5.80;99.90;;;6.67;97.15;99371.41;4716680;30;20247;-73
2020/12/13 04:04:35;;;;;;;18.13;13.20;;;5.80;99.90;;;6.52;98.53;99384.22;4716263;30;20278;-74
2020/12/13 04:07:03;;;;;;;18.90;13.47;;;5.70;99.90;;;6.43;99.20;99385.53;4716399;30;20300;-74
2020/12/13 04:09:30;;;;;;;15.97;12.83;;;5.60;99.90;;;6.64;97.66;99382.53;4716593;30;20300;-73
2020/12/13 04:11:57;;;;;;;20.00;13.70;;;5.70;99.90;;;6.60;97.67;99392.00;4716403;30;20312;-73
2020/12/13 04:14:24;;;;;;;17.83;12.83;;;5.70;99.90;;;6.75;96.21;99396.06;4716545;30;20312;-74
2020/12/13 04:16:52;;;;;;;18.40;13.93;;;5.70;99.90;;;6.95;95.09;99399.44;4716207;30;20617;-73
2020/12/13 04:19:19;;;;;;;16.27;12.43;;;5.80;99.90;;;6.70;97.32;99400.41;4716216;30;20220;-74
2020/12/13 04:21:47;;;;;;;18.20;13.23;;;5.80;99.90;;;6.93;96.47;99400.72;4716159;30;20289;-74
2020/12/13 04:24:15;;;;;;;20.37;14.30;;;5.80;99.90;;;6.74;97.38;99397.09;4716427;30;20221;-74
2020/12/13 04:26:42;;;;;;;21.27;15.87;;;5.80;99.90;;;6.86;97.87;99390.03;4715909;30;20241;-73
2020/12/13 04:29:09;;;;;;;23.27;16.27;;;5.90;99.90;;;6.86;99.50;99395.41;4716165;30;20650;-74
2020/12/13 04:31:36;;;;;;;20.53;15.70;;;5.90;99.90;;;6.57;100.00;99398.63;4715986;30;20793;-73
2020/12/13 04:34:04;;;;;;;20.60;15.70;;;5.80;99.90;;;6.43;100.00;99386.31;4715837;30;20223;-73
2020/12/13 04:36:31;;;;;;;24.53;17.73;;;5.70;99.90;;;6.74;100.00;99396.28;4716192;30;20261;-74
2020/12/13 04:38:58;;;;;;;24.07;17.00;;;5.70;99.90;;;6.57;100.00;99395.13;4716074;30;20267;-73
2020/12/13 04:41:26;;;;;;;25.87;17.43;;;5.70;99.90;;;6.55;100.00;99403.38;4715630;30;20221;-62
2020/12/13 04:43:54;;;;;;;23.60;17.63;;;5.70;99.90;;;6.34;100.00;99401.00;4715907;30;20248;-62
2020/12/13 04:46:29;;;;;;;23.70;17.97;;;5.60;99.90;;;6.40;100.00;99404.66;4715958;30;20645;-62
2020/12/13 04:48:57;;;;;;;24.20;18.13;;;5.60;99.90;;;6.42;100.00;99400.75;4715649;30;20244;-63
2020/12/13 04:51:27;;;;;;;24.27;18.53;;;5.50;99.90;;;6.39;100.00;99403.03;4715742;30;20719;-62
2020/12/13 04:54:06;;;;;;;25.07;18.33;;;5.50;99.90;;;6.73;100.00;99406.16;4715799;30;20562;-62
2020/12/13 04:56:36;;;;;;;24.97;17.73;;;5.60;99.90;;;6.51;100.00;99404.81;4715671;30;20307;-61
2020/12/13 04:59:05;;;;;;;24.83;17.00;;;5.50;99.90;;;6.35;100.00;99399.13;4715834;30;20284;-61
2020/12/13 05:01:33;;;;;;;24.03;17.80;;;5.50;99.90;;;6.57;100.00;99409.31;4715717;30;20655;-61
2020/12/13 05:04:01;;;;;;;25.53;17.80;;;5.50;99.90;;;6.72;100.00;99407.19;4715844;30;20240;-61
2020/12/13 05:06:30;;;;;;;23.13;17.87;;;5.50;99.90;;;6.49;100.00;99409.56;4715657;30;20206;-62
2020/12/13 05:08:57;;;;;;;26.53;18.30;;;5.50;99.90;;;6.91;100.00;99421.50;4715928;30;20303;-61
2020/12/13 05:11:25;;;;;;;23.70;17.77;;;5.60;99.90;;;6.92;100.00;99415.94;4715756;30;20259;-62
2020/12/13 05:13:53;;;;;;;24.83;17.67;;;5.70;99.90;;;6.51;100.00;99420.84;4715638;30;20300;-61
2020/12/13 05:16:22;;;;;;;25.60;17.80;;;5.70;99.90;;;6.38;100.00;99425.44;4715717;30;20239;-62
2020/12/13 05:18:51;;;;;;;23.50;17.90;;;5.60;99.90;;;6.79;100.00;99428.56;4715921;30;20221;-61
2020/12/13 05:21:22;;;;;;;26.67;18.17;;;5.70;99.90;;;6.71;100.00;99428.81;4716010;30;20312;-62
2020/12/13 05:23:51;;;;;;;22.70;16.93;;;5.70;99.90;;;6.83;100.00;99433.28;4716185;30;20554;-62
2020/12/13 05:26:21;;;;;;;21.90;16.17;;;5.70;99.90;;;6.86;100.00;99438.22;4715331;30;20221;-62
2020/12/13 05:28:51;;;;;;;22.23;16.27;;;5.80;99.90;;;6.59;100.00;99435.88;4715804;30;20232;-61
2020/12/13 05:31:23;;;;;;;23.00;17.10;;;5.70;99.90;;;6.50;100.00;99437.97;4716083;30;20245;-62
2020/12/13 05:33:53;;;;;;;23.50;16.97;;;5.60;99.90;;;6.76;100.00;99440.53;4715404;30;20665;-62
2020/12/13 05:36:21;;;;;;;25.80;17.10;;;5.70;99.90;;;6.73;100.00;99443.63;4715356;30;20273;-62
2020/12/13 05:38:48;;;;;;;22.13;16.73;;;5.70;99.90;;;6.73;100.00;99440.94;4715683;30;20217;-62
2020/12/13 05:41:17;;;;;;;22.23;15.80;;;5.70;99.90;;;6.57;100.00;99453.97;4715193;30;20592;-62
2020/12/13 05:43:48;;;;;;;21.53;16.33;;;5.70;99.90;;;6.54;100.00;99454.41;4715703;30;20417;-63
2020/12/13 05:46:39;;;;;;;21.27;15.73;;;5.60;99.90;;;6.73;100.00;99446.28;4715259;30;20656;-61
2020/12/13 05:49:42;;;;;;;21.83;15.60;;;5.60;99.90;;;7.04;97.99;99454.38;4717702;30;20241;-62
2020/12/13 05:52:11;;;;;;;21.07;15.27;;;5.80;99.90;;;6.64;99.98;99460.97;4718952;30;20624;-62
2020/12/13 05:54:38;;;;;;;21.00;15.47;;;5.80;99.90;;;6.69;100.00;99460.31;4718780;30;20299;-62
2020/12/13 05:57:05;;;;;;;19.30;14.93;;;5.70;99.90;;;6.63;100.00;99464.66;4718315;30;20732;-62
2020/12/13 05:59:33;;;;;;;20.70;15.50;;;5.70;99.90;;;6.79;99.29;99464.19;4718797;30;20233;-62
2020/12/13 06:02:02;;;;;;;20.63;15.10;;;5.70;99.90;;;6.87;97.98;99463.94;4718652;30;20210;-62
2020/12/13 06:04:32;;;;;;;21.23;15.47;;;5.80;99.90;;;6.77;99.49;99466.25;4718281;30;20707;-62
2020/12/13 06:07:03;;;;;;;21.27;14.93;;;5.70;99.90;;;6.84;98.84;99464.38;4718852;30;20291;-63
2020/12/13 06:09:37;;;;;;;19.80;15.13;;;5.80;99.90;;;6.87;98.39;99460.44;4718694;30;20279;-62
2020/12/13 06:12:07;;;;;;;19.57;14.57;;;5.80;99.90;;;6.90;98.00;99468.88;4718521;30;20288;-62
2020/12/13 06:14:36;;;;;;;19.53;14.60;;;5.90;99.90;;;7.09;96.82;99467.97;4718527;30;20209;-61
2020/12/13 06:17:04;;;;;;;18.40;14.10;;;5.90;99.90;;;6.75;98.60;99475.56;4718492;30;20275;-62
2020/12/13 06:19:35;;;;;;;18.97;13.40;;;5.90;99.90;;;6.88;98.26;99480.84;4718002;30;20656;-62
2020/12/13 06:22:03;;;;;;;19.07;14.50;;;5.80;99.90;;;6.64;98.38;99476.19;4718244;30;20241;-62
2020/12/13 06:24:31;;;;;;;20.67;14.13;;;5.80;99.90;;;6.58;100.00;99485.88;4718318;30;20213;-62
2020/12/13 06:27:00;;;;;;;20.37;14.63;;;5.70;99.90;;;6.54;99.98;99500.72;4718255;30;20244;-63
2020/12/13 06:29:27;;;;;;;18.23;12.80;;;5.70;99.90;;;6.46;100.00;99486.75;4718131;30;20217;-62
2020/12/13 06:31:56;;;;;;;18.97;14.13;;;5.60;99.90;;;6.60;99.93;99491.00;4717968;30;20304;-62
2020/12/13 06:34:24;;;;;;;19.00;13.67;;;5.60;99.90;;;6.48;100.00;99495.41;4717699;30;20214;-62
2020/12/13 06:36:52;;;;;;;19.13;14.40;;;5.60;99.90;;;6.91;97.64;99497.31;4718207;30;20261;-62
2020/12/13 06:39:20;;;;;;;18.80;13.50;;;5.70;99.90;;;6.69;98.33;99503.13;4717888;30;20692;-62
2020/12/13 06:41:55;;;;;;;18.43;13.60;;;5.70;99.90;;;6.38;99.90;99511.03;4717663;30;20671;-62
2020/12/13 06:44:23;;;;;;;18.37;13.67;;;5.60;99.90;;;6.43;100.00;99509.38;4717899;30;20308;-62
2020/12/13 06:46:50;;;;;;;17.33;13.30;;;5.50;99.90;;;6.58;99.27;99501.94;4728201;30;20220;-61
2020/12/13 06:49:19;;;;;;;18.90;13.73;;;5.60;99.90;;;6.41;100.00;99506.09;4734748;30;20314;-62
2020/12/13 06:51:48;;;;;;;16.70;13.37;;;5.50;99.90;;;6.46;100.00;99510.81;4734899;30;20657;-62
2020/12/13 06:54:18;;;;;;;17.80;13.10;;;5.50;99.90;;;6.63;99.77;99512.03;4735140;30;20277;-62
2020/12/13 06:56:47;;;;;;;16.60;13.33;;;5.50;99.90;;;6.84;97.68;99512.56;4734674;30;20240;-62
2020/12/13 06:59:19;;;;;;;17.90;13.50;;;5.70;99.90;;;6.83;97.84;99521.59;4734095;30;20327;-62
2020/12/13 07:01:47;;;;;;;18.00;13.33;;;5.70;99.90;;;6.80;98.38;99522.03;4734634;30;20648;-62
2020/12/13 07:04:28;;;;;;;17.37;13.27;;;5.80;99.90;;;6.68;99.15;99534.41;4734594;30;20217;-63
2020/12/13 07:06:59;;;;;;;19.00;12.93;;;5.70;99.90;;;7.00;97.93;99528.13;4718251;30;20304;-62
2020/12/13 07:09:29;;;;;;;19.27;13.33;;;5.80;99.90;;;6.71;98.42;99531.34;4717333;30;20259;-62
2020/12/13 07:11:59;;;;;;;16.00;12.63;;;5.80;99.90;;;6.86;98.52;99537.28;4717264;30;20206;-63
2020/12/13 07:14:30;;;;;;;17.50;12.67;;;5.70;99.90;;;6.96;97.30;99539.50;4717028;30;20249;-62
2020/12/13 07:17:01;;;;;;;15.93;12.83;;;5.90;99.90;;;7.13;96.56;99537.97;4717094;30;20640;-61
2020/12/13 07:19:32;;;;;;;17.90;13.47;;;5.90;99.90;;;7.03;96.75;99541.13;4717042;30;20204;-61
2020/12/13 07:22:06;;;;;;;17.50;13.07;;;5.90;99.90;;;6.81;97.52;99555.00;4717243;30;20198;-62
2020/12/13 07:24:36;;;;;;;16.13;12.50;;;5.90;99.90;;;6.91;97.34;99545.50;4717260;30;20194;-62
2020/12/13 07:27:04;;;;;;;16.00;11.87;;;5.90;99.90;;;7.02;96.59;99544.81;4716974;30;20320;-62
2020/12/13 07:29:32;;;;;;;17.23;12.57;;;5.90;99.90;;;7.08;96.65;99552.03;4716554;30;20220;-61
2020/12/13 07:32:01;;;;;;;15.80;12.20;;;6.00;99.90;;;6.85;98.27;99557.03;4717073;30;20313;-61
2020/12/13 07:34:28;;;;;;;15.70;12.20;;;5.90;99.90;;;6.80;98.73;99570.22;4716853;30;20214;-61
2020/12/13 07:36:56;;;;;;;15.80;11.80;;;5.90;99.90;;;6.86;97.33;99558.69;4716947;30;20332;-64
2020/12/13 07:39:23;;;;;;;15.47;11.83;;;5.90;99.90;;;7.18;96.58;99559.59;4716706;30;20609;-63
2020/12/13 07:41:51;;;;;;;16.43;12.23;;;5.90;99.90;;;6.93;96.91;99564.84;4716815;30;20299;-62
2020/12/13 07:44:19;;;;;;;16.53;12.10;;;5.90;99.90;;;6.79;98.75;99568.59;4716601;30;20213;-62
2020/12/13 07:46:47;;;;;;;17.43;12.83;;;5.90;99.90;;;6.72;99.14;99575.81;4716501;30;20221;-62
2020/12/13 07:49:17;;;;;;;16.27;12.93;;;5.80;99.90;;;6.82;98.39;99580.72;4720525;30;20232;-63
2020/12/13 07:51:47;;;;;;;18.47;15.27;;;5.80;99.90;;;6.76;98.68;99576.22;4723723;30;20611;-63
2020/12/13 07:54:19;;;;;;;18.63;15.00;;;5.80;99.90;;;6.70;99.16;99585.88;4723637;30;20296;-62
2020/12/13 07:56:49;;;;;;;20.10;16.47;;;5.80;99.90;;;6.87;99.30;99583.56;4716044;30;20715;-63
2020/12/13 07:59:19;;;;;;;18.10;13.97;;;5.80;99.90;;;7.15;96.29;99582.25;4720560;30;20288;-62
2020/12/13 08:01:48;;;;;;;17.43;13.70;;;5.90;99.90;;;6.97;97.68;99582.13;4716614;30;20276;-62
2020/12/13 08:04:29;;;;;;;18.13;13.63;;;5.90;99.90;;;7.21;95.98;99583.25;4716405;30;20227;-63
2020/12/13 08:06:59;;;;;;;16.23;12.47;;;6.10;99.90;;;7.11;96.95;99596.28;4716459;30;20260;-62
2020/12/13 08:09:27;;;;;;;14.33;11.40;;;6.00;99.90;;;7.05;96.87;99597.13;4716537;30;20300;-63
2020/12/13 08:11:54;;;;;;;15.77;12.23;;;6.10;99.90;;;7.22;95.79;99596.44;4716036;30;20271;-62
2020/12/13 08:14:25;;;;;;;15.30;11.70;;;6.10;99.90;;;7.16;96.07;99605.34;4716115;30;20315;-63
2020/12/13 08:16:54;;;;;;;16.10;12.53;;;6.10;99.90;;;7.15;96.00;99608.22;4716099;30;20313;-62
2020/12/13 08:19:28;;;;;;;16.07;12.50;;;6.10;99.90;;;7.20;95.54;99603.88;4716278;30;20252;-62
2020/12/13 08:22:02;;;;;;;16.20;12.97;;;6.10;99.90;;;7.51;93.20;99610.34;4716120;30;20212;-63
2020/12/13 08:24:30;;;;;;;15.77;12.73;;;6.20;99.90;;;7.35;93.82;99617.00;4716036;30;20289;-64
2020/12/13 08:26:59;;;;;;;14.87;12.33;;;6.30;99.90;;;7.51;94.02;99621.06;4715810;30;20599;-62
2020/12/13 08:29:31;;;;;;;15.73;13.23;;;6.30;99.90;;;7.77;92.44;99621.75;4715631;30;20304;-62
2020/12/13 08:32:00;;;;;;;15.47;12.03;;;6.50;99.90;;;7.63;92.42;99614.00;4716131;30;20198;-62
2020/12/13 08:34:30;;;;;;;15.57;12.33;;;6.50;99.90;;;7.33;94.45;99627.13;4715732;30;20217;-62
2020/12/13 08:37:00;;;;;;;16.33;12.80;;;6.50;99.90;;;7.34;95.05;99621.53;4716041;30;20324;-63
2020/12/13 08:39:30;;;;;;;15.03;12.03;;;6.40;99.90;;;7.36;94.67;99627.50;4715787;30;20689;-63
2020/12/13 08:41:59;;;;;;;15.83;13.10;;;6.40;99.90;;;7.50;94.16;99625.59;4715545;30;20684;-62
2020/12/13 08:44:30;;;;;;;16.43;12.80;;;6.40;99.90;;;7.57;93.28;99625.56;4715723;30;20297;-62
2020/12/13 08:47:00;;;;;;;15.43;11.50;;;6.50;99.90;;;7.54;93.43;99631.38;4715746;30;20284;-63
2020/12/13 08:49:33;;;;;;;16.13;12.57;;;6.50;99.90;;;7.55;94.25;99635.69;4716348;30;20233;-63
2020/12/13 08:52:21;;;;;;;14.93;11.90;;;6.50;99.90;;;7.85;92.77;99639.44;4715966;30;20229;-61
2020/12/13 08:55:04;;;;;;;15.20;12.20;;;6.60;99.90;;;7.82;92.85;99637.19;4715643;30;20198;-62
2020/12/13 08:57:34;;;;;;;16.33;13.17;;;6.70;99.90;;;8.04;91.28;99647.38;4715475;30;20696;-63
2020/12/13 09:00:08;;;;;;;14.67;11.70;;;6.70;99.90;;;7.93;91.95;99648.06;4715616;30;20213;-61
2020/12/13 09:02:57;;;;;;;13.53;11.27;;;6.80;99.90;;;7.87;92.69;99643.56;4715909;30;20229;-63
2020/12/13 09:05:29;;;;;;;16.13;12.00;;;6.80;99.90;;;8.14;90.66;99649.59;4715747;30;20284;-62
2020/12/13 09:07:59;;;;;;;15.83;12.73;;;6.90;99.90;;;8.04;90.84;99651.91;4715750;30;20308;-62
2020/12/13 09:10:31;;;;;;;15.03;12.37;;;7.00;99.90;;;8.04;91.18;99649.22;4715508;30;20213;-62
2020/12/13 09:13:06;;;;;;;16.43;12.20;;;6.90;99.90;;;8.24;90.03;99655.31;4715848;30;20236;-62
2020/12/13 09:15:34;;;;;;;15.73;11.90;;;7.10;99.90;;;8.07;91.61;99657.66;4715609;30;20779;-63
2020/12/13 09:18:03;;;;;;;14.33;11.27;;;7.00;99.90;;;8.05;91.27;99664.31;4716363;30;20213;-61
2020/12/13 09:20:33;;;;;;;15.47;12.07;;;7.00;99.90;;;7.93;91.36;99664.13;4716079;30;20213;-62
2020/12/13 09:23:12;;;;;;;15.50;12.80;;;7.00;99.90;;;8.19;90.59;99665.84;4716508;30;20301;-63
2020/12/13 09:25:42;;;;;;;14.70;12.10;;;7.00;99.90;;;8.14;91.53;99657.63;4718995;30;20295;-62
2020/12/13 09:28:10;;;;;;;13.63;11.20;;;7.00;99.90;;;8.25;90.01;99662.34;4718867;30;20213;-62
2020/12/13 09:30:40;;;;;;;14.90;11.53;;;7.10;99.90;;;8.21;90.57;99669.97;4720200;30;20714;-62
2020/12/13 09:33:08;;;;;;;14.87;11.40;;;7.10;99.90;;;8.23;90.82;99675.13;4728372;30;20244;-62
2020/12/13 09:35:35;;;;;;;15.50;12.77;;;7.10;99.90;;;8.49;89.18;99677.63;4735606;30;20225;-61
2020/12/13 09:38:05;;;;;;;16.27;12.97;;;7.30;99.90;;;8.36;89.35;99669.69;4735895;30;20263;-62
2020/12/13 09:40:33;;;;;;;15.77;12.70;;;7.30;99.90;;;8.33;89.25;99678.19;4737001;30;20328;-62
2020/12/13 09:43:03;;;;;;;15.90;12.43;;;7.30;99.90;;;8.34;89.45;99671.75;4736440;30;20707;-64
2020/12/13 09:45:30;;;;;;;16.40;12.80;;;7.30;99.90;;;8.45;89.00;99679.13;4735865;30;20255;-62
2020/12/13 09:47:58;;;;;;;15.80;12.40;;;7.40;99.90;;;8.36;90.28;99681.25;4735941;30;20232;-62
2020/12/13 09:50:28;;;;;;;16.57;12.47;;;7.40;99.90;;;8.50;89.71;99681.97;4735642;30;20220;-61
2020/12/13 09:52:56;;;;;;;17.33;12.80;;;7.30;99.90;;;8.80;88.05;99674.09;4735627;30;20294;-62
2020/12/13 09:55:24;;;;;;;15.17;11.73;;;7.50;99.90;;;8.80;87.79;99679.44;4735689;30;20213;-62
2020/12/13 09:57:52;;;;;;;14.30;12.00;;;7.60;99.90;;;8.69;88.86;99680.19;4735411;30;20792;-63
2020/12/13 10:00:20;;;;;;;16.00;11.77;;;7.60;99.90;;;8.62;89.52;99681.03;4735925;30;20217;-63
2020/12/13 10:02:47;;;;;;;16.40;12.67;;;7.60;99.90;;;8.84;87.92;99694.09;4735758;30;20209;-63
2020/12/13 10:05:21;;;;;;;16.43;12.30;;;7.70;99.90;;;8.99;87.18;99681.97;4735643;30;20695;-61
2020/12/13 10:10:34;;;;;;;15.87;12.67;;;7.80;99.90;;;8.76;88.50;99689.81;4735792;30;20208;-62
2020/12/13 10:13:01;;;;;;;14.93;12.17;;;7.80;99.90;;;8.81;88.68;99695.34;4735581;30;20387;-63
2020/12/13 10:15:28;;;;;;;15.57;12.23;;;7.80;99.90;;;8.91;87.95;99692.19;4735437;30;20762;-63
2020/12/13 10:17:55;;;;;;;17.37;12.33;;;7.80;99.90;;;8.72;89.29;99703.91;4735730;30;20264;-62
2020/12/13 10:20:23;;;;;;;17.23;12.77;;;7.80;99.90;;;8.54;91.19;99696.63;4735717;30;20252;-62
2020/12/13 10:22:50;;;;;;;16.30;12.57;;;7.60;99.90;;;8.70;90.71;99693.38;4735713;30;20239;-62
2020/12/13 10:25:19;;;;;;;17.30;13.17;;;7.60;99.90;;;8.65;91.20;99698.59;4735441;30;20223;-62
2020/12/13 10:27:46;;;;;;;16.47;13.60;;;7.60;99.90;;;8.55;91.71;99703.63;4735429;30;20590;-64